sensor_id;sensor_type;location;lat;lon;timestamp;pressure;altitude;pressure_sealevel;temperature;humidity
60830;BME280;46663;45.478;9.116;2022-07-21T00:00:27;100277.25;;;31.17;32.12
60830;BME280;46663;45.478;9.116;2022-07-21T00:02:29;100246.25;;;30.92;32.34
60830;BME280;46663;45.478;9.116;2022-07-21T00:04:30;100282.22;;;31.13;32.88
60830;BME280;46663;45.478;9.116;2022-07-21T00:06:32;100286.38;;;31.09;32.61
60830;BME280;46663;45.478;9.116;2022-07-21T00:08:33;100280.88;;;31.09;32.72
60830;BME280;46663;45.478;9.116;2022-07-21T00:10:35;100279.16;;;31.08;32.93
60830;BME280;46663;45.478;9.116;2022-07-21T00:12:38;100281.72;;;31.02;33.16
60830;BME280;46663;45.478;9.116;2022-07-21T00:14:40;100280.88;;;31.01;33.40
60830;BME280;46663;45.478;9.116;2022-07-21T00:16:42;100271.47;;;30.96;33.89
60830;BME280;46663;45.478;9.116;2022-07-21T00:18:44;100280.91;;;30.93;33.82
60830;BME280;46663;45.478;9.116;2022-07-21T00:20:46;100273.19;;;30.88;33.59
60830;BME280;46663;45.478;9.116;2022-07-21T00:22:47;100285.53;;;30.92;33.83
60830;BME280;46663;45.478;9.116;2022-07-21T00:24:49;100293.44;;;30.87;34.09
60830;BME280;46663;45.478;9.116;2022-07-21T00:26:51;100285.34;;;30.86;33.90
60830;BME280;46663;45.478;9.116;2022-07-21T00:28:54;100285.69;;;30.83;33.97
60830;BME280;46663;45.478;9.116;2022-07-21T00:30:55;100281.75;;;30.77;34.04
60830;BME280;46663;45.478;9.116;2022-07-21T00:32:57;100276.44;;;30.76;33.94
60830;BME280;46663;45.478;9.116;2022-07-21T00:34:59;100268.56;;;30.73;34.43
60830;BME280;46663;45.478;9.116;2022-07-21T00:37:00;100275.94;;;30.72;34.10
60830;BME280;46663;45.478;9.116;2022-07-21T00:39:02;100266.16;;;30.61;33.88
60830;BME280;46663;45.478;9.116;2022-07-21T00:41:04;100273.88;;;30.66;34.10
60830;BME280;46663;45.478;9.116;2022-07-21T00:43:06;100276.47;;;30.67;33.93
60830;BME280;46663;45.478;9.116;2022-07-21T00:45:10;100278.69;;;30.64;34.04
60830;BME280;46663;45.478;9.116;2022-07-21T00:47:12;100282.63;;;30.61;34.12
60830;BME280;46663;45.478;9.116;2022-07-21T00:49:13;100281.25;;;30.65;33.91
60830;BME280;46663;45.478;9.116;2022-07-21T00:51:15;100267.53;;;30.49;34.48
60830;BME280;46663;45.478;9.116;2022-07-21T00:53:17;100286.41;;;30.60;34.18
60830;BME280;46663;45.478;9.116;2022-07-21T00:55:20;100284.19;;;30.56;34.42
60830;BME280;46663;45.478;9.116;2022-07-21T00:57:22;100286.03;;;30.55;34.72
60830;BME280;46663;45.478;9.116;2022-07-21T00:59:24;100290.50;;;30.48;34.50
60830;BME280;46663;45.478;9.116;2022-07-21T01:01:28;100283.66;;;30.44;34.70
60830;BME280;46663;45.478;9.116;2022-07-21T01:03:30;100269.44;;;30.32;34.56
60830;BME280;46663;45.478;9.116;2022-07-21T01:05:32;100279.22;;;30.35;34.89
60830;BME280;46663;45.478;9.116;2022-07-21T01:07:34;100286.06;;;30.31;34.79
60830;BME280;46663;45.478;9.116;2022-07-21T01:09:36;100289.44;;;30.24;35.01
60830;BME280;46663;45.478;9.116;2022-07-21T01:11:38;100288.03;;;30.20;34.99
60830;BME280;46663;45.478;9.116;2022-07-21T01:13:40;100275.38;;;30.19;35.12
60830;BME280;46663;45.478;9.116;2022-07-21T01:15:42;100286.00;;;30.22;35.07
60830;BME280;46663;45.478;9.116;2022-07-21T01:17:46;100283.94;;;30.16;35.23
60830;BME280;46663;45.478;9.116;2022-07-21T01:19:48;100286.19;;;30.21;35.06
60830;BME280;46663;45.478;9.116;2022-07-21T01:21:51;100275.53;;;30.18;35.53
60830;BME280;46663;45.478;9.116;2022-07-21T01:23:53;100282.06;;;30.25;34.38
60830;BME280;46663;45.478;9.116;2022-07-21T01:25:55;100287.72;;;30.23;34.65
60830;BME280;46663;45.478;9.116;2022-07-21T01:27:56;100282.41;;;30.22;34.59
60830;BME280;46663;45.478;9.116;2022-07-21T01:29:58;100293.59;;;30.28;34.26
60830;BME280;46663;45.478;9.116;2022-07-21T01:32:00;100280.91;;;30.27;34.42
60830;BME280;46663;45.478;9.116;2022-07-21T01:34:03;100281.78;;;30.28;34.44
60830;BME280;46663;45.478;9.116;2022-07-21T01:36:05;100288.09;;;30.28;34.22
60830;BME280;46663;45.478;9.116;2022-07-21T01:38:08;100277.59;;;30.24;34.10
60830;BME280;46663;45.478;9.116;2022-07-21T01:40:30;100282.94;;;30.25;34.04
60830;BME280;46663;45.478;9.116;2022-07-21T01:42:49;100268.84;;;30.20;34.09
60830;BME280;46663;45.478;9.116;2022-07-21T01:44:52;100278.66;;;30.23;34.36
60830;BME280;46663;45.478;9.116;2022-07-21T01:46:54;100268.84;;;30.20;34.07
60830;BME280;46663;45.478;9.116;2022-07-21T01:48:55;100268.00;;;30.20;34.05
60830;BME280;46663;45.478;9.116;2022-07-21T01:50:57;100270.22;;;30.24;34.03
60830;BME280;46663;45.478;9.116;2022-07-21T01:52:59;100265.25;;;30.20;34.03
60830;BME280;46663;45.478;9.116;2022-07-21T01:55:03;100266.63;;;30.24;34.21
60830;BME280;46663;45.478;9.116;2022-07-21T01:57:05;100271.59;;;30.20;33.97
60830;BME280;46663;45.478;9.116;2022-07-21T01:59:07;100272.63;;;30.19;34.56
60830;BME280;46663;45.478;9.116;2022-07-21T02:01:09;100265.44;;;30.18;34.01
60830;BME280;46663;45.478;9.116;2022-07-21T02:03:10;100269.19;;;30.17;34.17
60830;BME280;46663;45.478;9.116;2022-07-21T02:05:12;100269.19;;;30.17;34.07
60830;BME280;46663;45.478;9.116;2022-07-21T02:07:13;100268.84;;;30.12;34.26
60830;BME280;46663;45.478;9.116;2022-07-21T02:09:15;100268.69;;;30.14;33.94
60830;BME280;46663;45.478;9.116;2022-07-21T02:11:18;100268.50;;;30.15;34.67
60830;BME280;46663;45.478;9.116;2022-07-21T02:13:20;100267.81;;;30.13;34.65
60830;BME280;46663;45.478;9.116;2022-07-21T02:15:22;100263.53;;;30.11;34.95
60830;BME280;46663;45.478;9.116;2022-07-21T02:17:23;100256.19;;;30.11;34.42
60830;BME280;46663;45.478;9.116;2022-07-21T02:19:25;100267.31;;;30.09;34.56
60830;BME280;46663;45.478;9.116;2022-07-21T02:21:26;100264.03;;;30.06;34.69
60830;BME280;46663;45.478;9.116;2022-07-21T02:25:50;100256.16;;;30.03;35.19
60830;BME280;46663;45.478;9.116;2022-07-21T02:27:53;100252.91;;;29.99;35.30
60830;BME280;46663;45.478;9.116;2022-07-21T02:29:55;100254.78;;;29.99;35.57
60830;BME280;46663;45.478;9.116;2022-07-21T02:31:56;100257.34;;;29.92;34.63
60830;BME280;46663;45.478;9.116;2022-07-21T02:33:58;100256.31;;;29.93;34.86
60830;BME280;46663;45.478;9.116;2022-07-21T02:36:00;100256.31;;;29.93;35.16
60830;BME280;46663;45.478;9.116;2022-07-21T02:38:02;100255.13;;;29.96;35.52
60830;BME280;46663;45.478;9.116;2022-07-21T02:40:05;100256.81;;;29.97;35.32
60830;BME280;46663;45.478;9.116;2022-07-21T02:42:07;100248.97;;;29.85;35.15
60830;BME280;46663;45.478;9.116;2022-07-21T02:44:10;100257.53;;;29.91;34.94
60830;BME280;46663;45.478;9.116;2022-07-21T02:46:11;100262.16;;;29.90;34.47
60830;BME280;46663;45.478;9.116;2022-07-21T02:48:13;100258.88;;;29.86;35.16
60830;BME280;46663;45.478;9.116;2022-07-21T02:50:15;100261.13;;;29.83;36.91
60830;BME280;46663;45.478;9.116;2022-07-21T02:52:16;100252.50;;;29.78;35.90
60830;BME280;46663;45.478;9.116;2022-07-21T02:54:18;100252.50;;;29.78;35.51
60830;BME280;46663;45.478;9.116;2022-07-21T02:56:20;100242.09;;;29.81;35.10
60830;BME280;46663;45.478;9.116;2022-07-21T02:58:23;100236.41;;;29.75;35.34
60830;BME280;46663;45.478;9.116;2022-07-21T03:00:26;100243.78;;;29.74;37.14
60830;BME280;46663;45.478;9.116;2022-07-21T03:02:28;100240.69;;;29.69;36.95
60830;BME280;46663;45.478;9.116;2022-07-21T03:04:29;100240.50;;;29.71;35.56
60830;BME280;46663;45.478;9.116;2022-07-21T03:06:31;100243.09;;;29.72;35.37
60830;BME280;46663;45.478;9.116;2022-07-21T03:08:33;100251.47;;;29.71;36.18
60830;BME280;46663;45.478;9.116;2022-07-21T03:10:35;100241.53;;;29.70;35.74
60830;BME280;46663;45.478;9.116;2022-07-21T03:12:37;100241.84;;;29.66;35.82
60830;BME280;46663;45.478;9.116;2022-07-21T03:14:39;100243.91;;;29.64;35.15
60830;BME280;46663;45.478;9.116;2022-07-21T03:16:42;100237.38;;;29.57;35.63
60830;BME280;46663;45.478;9.116;2022-07-21T03:18:43;100241.97;;;29.49;38.53
60830;BME280;46663;45.478;9.116;2022-07-21T03:20:45;100247.59;;;29.47;39.64
60830;BME280;46663;45.478;9.116;2022-07-21T03:22:46;100245.03;;;29.45;38.86
60830;BME280;46663;45.478;9.116;2022-07-21T03:24:48;100236.28;;;29.42;37.42
60830;BME280;46663;45.478;9.116;2022-07-21T03:26:51;100238.47;;;29.38;36.33
60830;BME280;46663;45.478;9.116;2022-07-21T03:28:52;100242.47;;;29.44;36.37
60830;BME280;46663;45.478;9.116;2022-07-21T03:30:54;100245.19;;;29.44;35.73
60830;BME280;46663;45.478;9.116;2022-07-21T03:32:57;100238.16;;;29.41;36.30
60830;BME280;46663;45.478;9.116;2022-07-21T03:34:59;100241.91;;;29.40;35.75
60830;BME280;46663;45.478;9.116;2022-07-21T03:37:01;100246.38;;;29.41;36.92
60830;BME280;46663;45.478;9.116;2022-07-21T03:39:03;100228.56;;;29.37;37.36
60830;BME280;46663;45.478;9.116;2022-07-21T03:41:04;100238.47;;;29.38;37.11
60830;BME280;46663;45.478;9.116;2022-07-21T03:43:06;100246.88;;;29.37;36.42
60830;BME280;46663;45.478;9.116;2022-07-21T03:45:09;100236.75;;;29.29;36.36
60830;BME280;46663;45.478;9.116;2022-07-21T03:47:11;100240.66;;;29.27;36.24
60830;BME280;46663;45.478;9.116;2022-07-21T03:49:15;100248.22;;;29.33;37.07
60830;BME280;46663;45.478;9.116;2022-07-21T03:51:16;100196.56;;;29.03;37.52
60830;BME280;46663;45.478;9.116;2022-07-21T03:53:18;100205.69;;;29.12;36.57
60830;BME280;46663;45.478;9.116;2022-07-21T03:55:20;100241.91;;;29.32;37.17
60830;BME280;46663;45.478;9.116;2022-07-21T03:57:22;100205.34;;;29.07;36.52
60830;BME280;46663;45.478;9.116;2022-07-21T03:59:24;100218.72;;;29.18;37.61
60830;BME280;46663;45.478;9.116;2022-07-21T04:01:26;100218.19;;;29.15;37.00
60830;BME280;46663;45.478;9.116;2022-07-21T04:03:28;100247.72;;;29.29;39.04
60830;BME280;46663;45.478;9.116;2022-07-21T04:05:32;100210.75;;;28.99;39.69
60830;BME280;46663;45.478;9.116;2022-07-21T04:07:34;100230.66;;;29.09;38.98
60830;BME280;46663;45.478;9.116;2022-07-21T04:09:36;100255.88;;;29.21;38.16
60830;BME280;46663;45.478;9.116;2022-07-21T04:11:37;100221.31;;;28.94;39.47
60830;BME280;46663;45.478;9.116;2022-07-21T04:13:39;100255.16;;;29.11;38.31
60830;BME280;46663;45.478;9.116;2022-07-21T04:15:41;100214.41;;;28.81;40.30
60830;BME280;46663;45.478;9.116;2022-07-21T04:17:43;100244.78;;;28.96;38.30
60830;BME280;46663;45.478;9.116;2022-07-21T04:19:45;100227.78;;;28.85;37.82
60830;BME280;46663;45.478;9.116;2022-07-21T04:21:48;100253.88;;;29.05;40.47
60830;BME280;46663;45.478;9.116;2022-07-21T04:23:50;100226.75;;;28.86;37.89
60830;BME280;46663;45.478;9.116;2022-07-21T04:25:51;100258.66;;;29.03;41.23
60830;BME280;46663;45.478;9.116;2022-07-21T04:27:53;100229.97;;;28.81;42.10
60830;BME280;46663;45.478;9.116;2022-07-21T04:29:55;100264.13;;;29.03;39.57
60830;BME280;46663;45.478;9.116;2022-07-21T04:31:57;100239.25;;;28.88;40.11
60830;BME280;46663;45.478;9.116;2022-07-21T04:33:58;100234.47;;;28.90;40.03
60830;BME280;46663;45.478;9.116;2022-07-21T04:36:00;100217.97;;;28.82;40.74
60830;BME280;46663;45.478;9.116;2022-07-21T04:38:03;100261.56;;;29.01;40.20
60830;BME280;46663;45.478;9.116;2022-07-21T04:40:07;100267.03;;;29.01;41.29
60830;BME280;46663;45.478;9.116;2022-07-21T04:42:09;100268.84;;;28.93;41.71
60830;BME280;46663;45.478;9.116;2022-07-21T04:44:11;100271.44;;;28.94;41.34
60830;BME280;46663;45.478;9.116;2022-07-21T04:46:13;100273.16;;;28.95;39.17
60830;BME280;46663;45.478;9.116;2022-07-21T04:48:16;100276.44;;;28.99;39.23
60830;BME280;46663;45.478;9.116;2022-07-21T04:50:19;100282.41;;;29.02;41.51
60830;BME280;46663;45.478;9.116;2022-07-21T04:52:21;100221.66;;;28.65;43.65
60830;BME280;46663;45.478;9.116;2022-07-21T04:54:24;100282.59;;;29.01;42.81
60830;BME280;46663;45.478;9.116;2022-07-21T04:56:26;100282.41;;;29.02;42.23
60830;BME280;46663;45.478;9.116;2022-07-21T04:58:28;100286.13;;;29.19;38.71
60830;BME280;46663;45.478;9.116;2022-07-21T05:00:29;100286.31;;;29.18;39.37
60830;BME280;46663;45.478;9.116;2022-07-21T05:02:31;100289.38;;;29.15;42.49
60830;BME280;46663;45.478;9.116;2022-07-21T05:04:33;100285.06;;;29.12;39.16
60830;BME280;46663;45.478;9.116;2022-07-21T05:06:34;100299.78;;;29.11;40.56
60830;BME280;46663;45.478;9.116;2022-07-21T05:08:36;100294.66;;;29.08;41.67
60830;BME280;46663;45.478;9.116;2022-07-21T05:10:39;100296.50;;;29.08;40.50
60830;BME280;46663;45.478;9.116;2022-07-21T05:12:41;100303.31;;;29.03;41.86
60830;BME280;46663;45.478;9.116;2022-07-21T05:14:43;100292.91;;;29.07;37.78
60830;BME280;46663;45.478;9.116;2022-07-21T05:16:45;100295.78;;;29.05;36.19
60830;BME280;46663;45.478;9.116;2022-07-21T05:18:46;100301.00;;;29.17;35.60
60830;BME280;46663;45.478;9.116;2022-07-21T05:20:48;100311.00;;;29.26;35.33
60830;BME280;46663;45.478;9.116;2022-07-21T05:22:50;100300.88;;;29.27;34.85
60830;BME280;46663;45.478;9.116;2022-07-21T05:24:51;100310.00;;;29.35;35.88
60830;BME280;46663;45.478;9.116;2022-07-21T05:26:55;100310.38;;;29.40;35.18
60830;BME280;46663;45.478;9.116;2022-07-21T05:28:56;100302.56;;;29.45;34.81
60830;BME280;46663;45.478;9.116;2022-07-21T05:30:58;100315.06;;;29.48;35.03
60830;BME280;46663;45.478;9.116;2022-07-21T05:33:00;100303.06;;;29.49;34.37
60830;BME280;46663;45.478;9.116;2022-07-21T05:35:02;100299.47;;;29.49;34.35
60830;BME280;46663;45.478;9.116;2022-07-21T05:37:08;100310.44;;;29.49;34.32
60830;BME280;46663;45.478;9.116;2022-07-21T05:39:10;100300.47;;;29.48;34.23
60830;BME280;46663;45.478;9.116;2022-07-21T05:41:11;100315.63;;;29.60;34.61
60830;BME280;46663;45.478;9.116;2022-07-21T05:43:14;100306.84;;;29.56;34.23
60830;BME280;46663;45.478;9.116;2022-07-21T05:45:16;100317.88;;;29.64;34.12
60830;BME280;46663;45.478;9.116;2022-07-21T05:47:18;100308.63;;;29.65;33.99
60830;BME280;46663;45.478;9.116;2022-07-21T05:49:20;100312.53;;;29.63;33.67
60830;BME280;46663;45.478;9.116;2022-07-21T05:51:21;100303.28;;;29.56;33.25
60830;BME280;46663;45.478;9.116;2022-07-21T05:53:23;100316.72;;;29.67;33.51
60830;BME280;46663;45.478;9.116;2022-07-21T05:55:25;100311.22;;;29.67;33.66
60830;BME280;46663;45.478;9.116;2022-07-21T05:57:27;100322.38;;;29.74;32.75
60830;BME280;46663;45.478;9.116;2022-07-21T05:59:30;100286.13;;;29.45;32.63
60830;BME280;46663;45.478;9.116;2022-07-21T06:01:31;100329.22;;;29.70;32.65
60830;BME280;46663;45.478;9.116;2022-07-21T06:03:33;100322.53;;;29.72;32.99
60830;BME280;46663;45.478;9.116;2022-07-21T06:05:35;100322.91;;;29.77;32.99
60830;BME280;46663;45.478;9.116;2022-07-21T06:07:37;100327.38;;;29.86;33.53
60830;BME280;46663;45.478;9.116;2022-07-21T06:09:39;100335.81;;;30.01;33.88
60830;BME280;46663;45.478;9.116;2022-07-21T06:11:41;100332.91;;;30.03;32.75
60830;BME280;46663;45.478;9.116;2022-07-21T06:13:43;100329.47;;;30.01;32.29
60830;BME280;46663;45.478;9.116;2022-07-21T06:15:46;100338.06;;;30.06;32.40
60830;BME280;46663;45.478;9.116;2022-07-21T06:17:47;100351.94;;;30.04;32.09
60830;BME280;46663;45.478;9.116;2022-07-21T06:19:49;100328.97;;;29.97;31.64
60830;BME280;46663;45.478;9.116;2022-07-21T06:21:51;100345.97;;;30.17;32.22
60830;BME280;46663;45.478;9.116;2022-07-21T06:23:52;100349.75;;;30.16;31.86
60830;BME280;46663;45.478;9.116;2022-07-21T06:25:54;100341.41;;;30.26;31.93
60830;BME280;46663;45.478;9.116;2022-07-21T06:27:56;100347.59;;;30.28;31.03
60830;BME280;46663;45.478;9.116;2022-07-21T06:29:58;100333.38;;;30.33;31.24
60830;BME280;46663;45.478;9.116;2022-07-21T06:32:01;100343.66;;;30.71;30.69
60830;BME280;46663;45.478;9.116;2022-07-21T06:34:03;100343.00;;;30.94;29.96
60830;BME280;46663;45.478;9.116;2022-07-21T06:36:07;100336.66;;;30.94;30.45
60830;BME280;46663;45.478;9.116;2022-07-21T06:38:08;100342.66;;;30.97;30.38
60830;BME280;46663;45.478;9.116;2022-07-21T06:40:11;100348.25;;;31.37;29.59
60830;BME280;46663;45.478;9.116;2022-07-21T06:42:13;100339.63;;;32.04;28.59
60830;BME280;46663;45.478;9.116;2022-07-21T06:44:14;100346.84;;;32.28;27.78
60830;BME280;46663;45.478;9.116;2022-07-21T06:46:16;100324.19;;;31.94;28.34
60830;BME280;46663;45.478;9.116;2022-07-21T06:48:19;100342.69;;;32.63;27.65
60830;BME280;46663;45.478;9.116;2022-07-21T06:50:22;100343.09;;;33.13;26.59
60830;BME280;46663;45.478;9.116;2022-07-21T06:52:24;100338.09;;;33.31;26.76
60830;BME280;46663;45.478;9.116;2022-07-21T06:54:25;100324.50;;;33.15;26.07
60830;BME280;46663;45.478;9.116;2022-07-21T06:56:27;100338.31;;;33.30;25.94
60830;BME280;46663;45.478;9.116;2022-07-21T06:58:30;100338.22;;;33.68;26.06
60830;BME280;46663;45.478;9.116;2022-07-21T07:00:33;100328.31;;;34.61;25.28
60830;BME280;46663;45.478;9.116;2022-07-21T07:02:35;100333.50;;;35.55;23.25
60830;BME280;46663;45.478;9.116;2022-07-21T07:04:38;100321.13;;;35.16;23.76
60830;BME280;46663;45.478;9.116;2022-07-21T07:06:40;100339.56;;;34.87;24.47
60830;BME280;46663;45.478;9.116;2022-07-21T07:08:41;100329.25;;;34.96;25.58
60830;BME280;46663;45.478;9.116;2022-07-21T07:10:44;100335.94;;;35.37;23.69
60830;BME280;46663;45.478;9.116;2022-07-21T07:12:46;100348.88;;;35.64;23.03
60830;BME280;46663;45.478;9.116;2022-07-21T07:14:48;100339.63;;;35.50;23.12
60830;BME280;46663;45.478;9.116;2022-07-21T07:16:50;100346.56;;;35.40;23.27
60830;BME280;46663;45.478;9.116;2022-07-21T07:18:52;100351.38;;;35.24;23.47
60830;BME280;46663;45.478;9.116;2022-07-21T07:20:55;100348.50;;;35.11;23.35
60830;BME280;46663;45.478;9.116;2022-07-21T07:22:56;100351.28;;;35.46;23.62
60830;BME280;46663;45.478;9.116;2022-07-21T07:24:58;100353.59;;;35.42;23.10
60830;BME280;46663;45.478;9.116;2022-07-21T07:26:59;100349.91;;;35.63;22.67
60830;BME280;46663;45.478;9.116;2022-07-21T07:29:01;100345.75;;;35.74;22.49
60830;BME280;46663;45.478;9.116;2022-07-21T07:31:03;100346.84;;;35.86;22.12
60830;BME280;46663;45.478;9.116;2022-07-21T07:33:05;100343.44;;;35.84;22.22
60830;BME280;46663;45.478;9.116;2022-07-21T07:35:08;100347.31;;;35.55;22.57
60830;BME280;46663;45.478;9.116;2022-07-21T07:37:12;100350.72;;;35.92;22.46
60830;BME280;46663;45.478;9.116;2022-07-21T07:39:13;100340.19;;;36.16;21.86
60830;BME280;46663;45.478;9.116;2022-07-21T07:41:16;100343.22;;;36.41;20.89
60830;BME280;46663;45.478;9.116;2022-07-21T07:43:17;100346.25;;;37.06;20.25
60830;BME280;46663;45.478;9.116;2022-07-21T07:45:19;100350.53;;;36.68;20.19
60830;BME280;46663;45.478;9.116;2022-07-21T07:47:21;100349.38;;;36.29;20.47
60830;BME280;46663;45.478;9.116;2022-07-21T07:49:23;100348.53;;;36.42;20.74
60830;BME280;46663;45.478;9.116;2022-07-21T07:51:25;100349.88;;;36.66;20.89
60830;BME280;46663;45.478;9.116;2022-07-21T07:53:28;100337.91;;;36.52;20.72
60830;BME280;46663;45.478;9.116;2022-07-21T07:55:29;100350.69;;;36.53;20.79
60830;BME280;46663;45.478;9.116;2022-07-21T07:57:31;100345.56;;;36.57;21.24
60830;BME280;46663;45.478;9.116;2022-07-21T07:59:33;100333.66;;;36.37;21.52
60830;BME280;46663;45.478;9.116;2022-07-21T08:01:34;100346.06;;;36.61;21.26
60830;BME280;46663;45.478;9.116;2022-07-21T08:03:36;100337.28;;;36.50;21.41
60830;BME280;46663;45.478;9.116;2022-07-21T08:05:38;100328.59;;;36.80;21.44
60830;BME280;46663;45.478;9.116;2022-07-21T08:07:40;100330.72;;;36.78;21.43
60830;BME280;46663;45.478;9.116;2022-07-21T08:09:43;100324.97;;;36.86;21.17
60830;BME280;46663;45.478;9.116;2022-07-21T08:11:45;100331.38;;;36.93;21.64
60830;BME280;46663;45.478;9.116;2022-07-21T08:13:47;100336.25;;;37.05;21.66
60830;BME280;46663;45.478;9.116;2022-07-21T08:15:49;100329.41;;;37.27;21.42
60830;BME280;46663;45.478;9.116;2022-07-21T08:17:51;100330.78;;;37.76;20.89
60830;BME280;46663;45.478;9.116;2022-07-21T08:19:53;100331.13;;;37.28;21.24
60830;BME280;46663;45.478;9.116;2022-07-21T08:21:55;100309.78;;;37.35;21.33
60830;BME280;46663;45.478;9.116;2022-07-21T08:23:57;100330.22;;;37.68;21.64
60830;BME280;46663;45.478;9.116;2022-07-21T08:26:00;100310.50;;;37.83;21.41
60830;BME280;46663;45.478;9.116;2022-07-21T08:28:02;100320.13;;;38.25;20.46
60830;BME280;46663;45.478;9.116;2022-07-21T08:30:04;100323.72;;;38.32;20.83
60830;BME280;46663;45.478;9.116;2022-07-21T08:32:06;100320.66;;;38.09;20.59
60830;BME280;46663;45.478;9.116;2022-07-21T08:34:08;100322.94;;;37.67;21.27
60830;BME280;46663;45.478;9.116;2022-07-21T08:36:10;100316.41;;;37.93;21.62
60830;BME280;46663;45.478;9.116;2022-07-21T08:38:12;100311.53;;;37.88;20.53
60830;BME280;46663;45.478;9.116;2022-07-21T08:40:14;100304.97;;;38.21;20.50
60830;BME280;46663;45.478;9.116;2022-07-21T08:42:17;100308.53;;;37.90;20.41
60830;BME280;46663;45.478;9.116;2022-07-21T08:44:20;100312.56;;;38.39;20.79
60830;BME280;46663;45.478;9.116;2022-07-21T08:46:22;100313.31;;;38.21;20.89
60830;BME280;46663;45.478;9.116;2022-07-21T08:48:25;100312.50;;;38.46;20.15
60830;BME280;46663;45.478;9.116;2022-07-21T08:50:30;100305.88;;;38.78;20.66
60830;BME280;46663;45.478;9.116;2022-07-21T08:52:32;100300.06;;;38.23;19.67
60830;BME280;46663;45.478;9.116;2022-07-21T08:54:33;100307.50;;;38.29;19.61
60830;BME280;46663;45.478;9.116;2022-07-21T08:56:35;100313.97;;;38.16;19.30
60830;BME280;46663;45.478;9.116;2022-07-21T08:58:38;100301.59;;;38.19;19.04
60830;BME280;46663;45.478;9.116;2022-07-21T09:00:42;100316.19;;;38.39;18.91
60830;BME280;46663;45.478;9.116;2022-07-21T09:02:44;100308.81;;;38.27;19.40
60830;BME280;46663;45.478;9.116;2022-07-21T09:04:46;100318.44;;;38.24;19.75
60830;BME280;46663;45.478;9.116;2022-07-21T09:06:55;100313.13;;;38.16;19.58
60830;BME280;46663;45.478;9.116;2022-07-21T09:08:57;100310.88;;;37.93;19.71
60830;BME280;46663;45.478;9.116;2022-07-21T09:11:14;100296.56;;;37.44;19.86
60830;BME280;46663;45.478;9.116;2022-07-21T09:13:16;100304.72;;;37.19;20.33
60830;BME280;46663;45.478;9.116;2022-07-21T09:15:22;100315.59;;;37.14;20.92
60830;BME280;46663;45.478;9.116;2022-07-21T09:17:24;100314.72;;;37.20;20.20
60830;BME280;46663;45.478;9.116;2022-07-21T09:19:27;100316.84;;;37.18;20.16
60830;BME280;46663;45.478;9.116;2022-07-21T09:21:29;100305.34;;;36.94;20.92
60830;BME280;46663;45.478;9.116;2022-07-21T09:23:31;100306.00;;;37.16;21.25
60830;BME280;46663;45.478;9.116;2022-07-21T09:25:34;100308.13;;;37.21;21.82
60830;BME280;46663;45.478;9.116;2022-07-21T09:27:36;100314.53;;;36.95;21.66
60830;BME280;46663;45.478;9.116;2022-07-21T09:29:41;100310.69;;;36.96;22.16
60830;BME280;46663;45.478;9.116;2022-07-21T09:31:45;100288.94;;;37.06;21.80
60830;BME280;46663;45.478;9.116;2022-07-21T09:33:46;100294.47;;;37.20;22.05
60830;BME280;46663;45.478;9.116;2022-07-21T09:35:55;100296.97;;;37.34;21.31
60830;BME280;46663;45.478;9.116;2022-07-21T09:38:10;100304.25;;;37.35;21.25
60830;BME280;46663;45.478;9.116;2022-07-21T09:40:13;100305.13;;;36.96;21.07
60830;BME280;46663;45.478;9.116;2022-07-21T09:42:21;100299.81;;;36.68;21.67
60830;BME280;46663;45.478;9.116;2022-07-21T09:44:29;100302.16;;;36.64;21.62
60830;BME280;46663;45.478;9.116;2022-07-21T09:46:31;100306.00;;;36.63;21.75
60830;BME280;46663;45.478;9.116;2022-07-21T09:48:36;100258.03;;;36.49;22.02
60830;BME280;46663;45.478;9.116;2022-07-21T09:50:39;100288.97;;;36.73;22.61
60830;BME280;46663;45.478;9.116;2022-07-21T09:52:42;100297.06;;;36.68;22.09
60830;BME280;46663;45.478;9.116;2022-07-21T09:54:44;100301.97;;;36.79;22.88
60830;BME280;46663;45.478;9.116;2022-07-21T09:56:46;100290.25;;;36.77;23.47
60830;BME280;46663;45.478;9.116;2022-07-21T09:58:50;100303.25;;;36.83;22.26
60830;BME280;46663;45.478;9.116;2022-07-21T10:00:52;100291.28;;;36.76;21.87
60830;BME280;46663;45.478;9.116;2022-07-21T10:02:55;100304.09;;;36.84;22.19
60830;BME280;46663;45.478;9.116;2022-07-21T10:04:59;100296.63;;;36.64;22.29
60830;BME280;46663;45.478;9.116;2022-07-21T10:07:01;100299.38;;;36.51;21.99
60830;BME280;46663;45.478;9.116;2022-07-21T10:09:05;100301.72;;;36.54;22.36
60830;BME280;46663;45.478;9.116;2022-07-21T10:11:07;100301.69;;;36.47;23.28
60830;BME280;46663;45.478;9.116;2022-07-21T10:13:09;100312.31;;;36.30;22.18
60830;BME280;46663;45.478;9.116;2022-07-21T10:15:11;100306.34;;;36.27;22.88
60830;BME280;46663;45.478;9.116;2022-07-21T10:17:14;100304.22;;;36.16;22.03
60830;BME280;46663;45.478;9.116;2022-07-21T10:19:20;100292.63;;;35.92;22.24
60830;BME280;46663;45.478;9.116;2022-07-21T10:21:30;100299.84;;;35.93;21.53
60830;BME280;46663;45.478;9.116;2022-07-21T10:23:39;100294.06;;;35.81;22.07
60830;BME280;46663;45.478;9.116;2022-07-21T10:25:42;100301.91;;;35.78;22.04
60830;BME280;46663;45.478;9.116;2022-07-21T10:28:16;100287.47;;;35.82;21.55
60830;BME280;46663;45.478;9.116;2022-07-21T10:30:36;100299.44;;;35.89;22.17
60830;BME280;46663;45.478;9.116;2022-07-21T10:32:49;100299.22;;;35.98;22.18
60830;BME280;46663;45.478;9.116;2022-07-21T10:34:51;100299.03;;;35.99;22.46
60830;BME280;46663;45.478;9.116;2022-07-21T10:36:55;100291.75;;;35.85;22.32
60830;BME280;46663;45.478;9.116;2022-07-21T10:41:37;100309.38;;;35.77;21.86
60830;BME280;46663;45.478;9.116;2022-07-21T10:43:43;100304.91;;;35.76;22.29
60830;BME280;46663;45.478;9.116;2022-07-21T10:45:44;100292.78;;;35.77;22.81